Time;durP1;ratioP1;P1;durP2;ratioP2;P2;SDS_P1;SDS_P2;PMS_P1;PMS_P2;Temp;Humidity;BMP_temperature;BMP_pressure;BME280_temperature;BME280_humidity;BME280_pressure;Samples;Min_cycle;Max_cycle;Signal;HPM_P1;HPM_P2
2023/04/06 00:00:49;;;;;;;14.55;8.70;;;4.70;99.90;;;;;;5074060;28;20041;-74
2023/04/06 00:03:15;;;;;;;11.93;7.63;;;4.70;99.90;;;;;;5073868;28;20119;-73
2023/04/06 00:05:41;;;;;;;11.65;7.05;;;4.60;99.90;;;;;;5073463;28;20131;-73
2023/04/06 00:08:07;;;;;;;13.80;8.50;;;4.60;99.90;;;;;;5073864;28;20044;-73
2023/04/06 00:10:32;;;;;;;14.23;7.80;;;4.60;99.90;;;;;;5073697;28;20033;-73
2023/04/06 00:12:59;;;;;;;10.70;7.60;;;4.60;99.90;;;;;;5073667;28;20129;-74
2023/04/06 00:15:25;;;;;;;11.32;7.90;;;4.50;99.90;;;;;;5073423;28;20040;-73
2023/04/06 00:17:51;;;;;;;12.95;8.73;;;4.60;99.90;;;;;;5073837;28;20068;-74
2023/04/06 00:20:17;;;;;;;19.50;8.40;;;4.50;99.90;;;;;;5073463;28;20484;-74
2023/04/06 00:22:43;;;;;;;11.48;8.07;;;4.50;99.90;;;;;;5073472;28;20123;-74
2023/04/06 00:25:10;;;;;;;13.43;8.07;;;4.50;99.90;;;;;;5073248;28;20523;-73
2023/04/06 00:27:35;;;;;;;13.90;8.00;;;4.50;99.90;;;;;;5073755;28;20048;-73
2023/04/06 00:30:02;;;;;;;11.13;8.50;;;4.50;99.90;;;;;;5073613;28;20650;-74
2023/04/06 00:32:28;;;;;;;10.05;7.55;;;4.50;99.90;;;;;;5073625;28;20421;-73
2023/04/06 00:34:53;;;;;;;15.75;8.30;;;4.40;99.90;;;;;;5072968;28;20093;-73
2023/04/06 00:37:19;;;;;;;14.15;7.32;;;4.40;99.90;;;;;;5073447;28;20094;-73
2023/04/06 00:39:45;;;;;;;12.50;7.80;;;4.40;99.90;;;;;;5073271;28;20043;-74
2023/04/06 00:42:14;;;;;;;10.02;7.65;;;4.40;99.90;;;;;;5073207;28;20576;-73
2023/04/06 00:44:42;;;;;;;13.63;8.07;;;4.40;99.90;;;;;;5072874;28;20041;-74
2023/04/06 00:47:08;;;;;;;11.95;8.25;;;4.40;99.90;;;;;;5073159;28;20391;-73
2023/04/06 00:49:34;;;;;;;16.67;8.25;;;4.30;99.90;;;;;;5073204;28;20035;-74
2023/04/06 00:52:01;;;;;;;12.48;8.88;;;4.30;99.90;;;;;;5073054;28;20032;-74
2023/04/06 00:54:27;;;;;;;10.90;7.78;;;4.30;99.90;;;;;;5072592;28;20044;-73
2023/04/06 00:56:53;;;;;;;12.43;7.90;;;4.20;99.90;;;;;;5072491;28;20044;-74
2023/04/06 00:59:18;;;;;;;12.30;8.68;;;4.20;99.90;;;;;;5071950;28;20460;-72
2023/04/06 01:01:44;;;;;;;14.35;8.85;;;4.20;99.90;;;;;;5072762;28;20048;-75
2023/04/06 01:04:10;;;;;;;13.05;8.52;;;4.10;99.90;;;;;;5072569;28;20037;-75
2023/04/06 01:06:35;;;;;;;14.23;9.25;;;4.10;99.90;;;;;;5072606;28;20041;-75
2023/04/06 01:09:01;;;;;;;11.75;7.88;;;4.10;99.90;;;;;;5072706;28;20037;-75
2023/04/06 01:11:26;;;;;;;13.30;8.57;;;4.10;99.90;;;;;;5072617;28;20032;-75
2023/04/06 01:13:52;;;;;;;19.35;8.73;;;4.00;99.90;;;;;;5072505;28;20684;-75
2023/04/06 01:16:18;;;;;;;14.15;8.48;;;4.00;99.90;;;;;;5055892;28;20086;-76
2023/04/06 01:18:44;;;;;;;12.85;8.85;;;4.00;99.90;;;;;;5072518;28;20036;-75
2023/04/06 01:21:15;;;;;;;14.32;8.70;;;4.00;99.90;;;;;;5072403;28;20461;-76
2023/04/06 01:23:45;;;;;;;16.02;8.85;;;3.90;99.90;;;;;;5072395;28;20043;-75
2023/04/06 01:26:12;;;;;;;12.65;8.80;;;4.00;99.90;;;;;;5072085;28;20403;-75
2023/04/06 01:28:37;;;;;;;14.52;8.55;;;3.90;99.90;;;;;;5072339;28;20120;-75
2023/04/06 01:31:04;;;;;;;14.15;9.55;;;4.00;99.90;;;;;;5072176;28;20124;-75
2023/04/06 01:33:30;;;;;;;12.65;8.82;;;3.90;99.90;;;;;;5072243;28;20044;-75
2023/04/06 01:35:55;;;;;;;13.38;8.68;;;3.90;99.90;;;;;;5071883;28;20515;-75
2023/04/06 01:38:21;;;;;;;13.85;9.15;;;3.90;99.90;;;;;;5072433;28;20396;-75
2023/04/06 01:40:46;;;;;;;12.50;9.13;;;3.80;99.90;;;;;;5072147;28;20515;-75
2023/04/06 01:43:12;;;;;;;12.55;8.63;;;3.80;99.90;;;;;;5073311;28;20040;-75
2023/04/06 01:45:37;;;;;;;14.15;9.38;;;3.80;99.90;;;;;;5072972;28;20053;-75
2023/04/06 01:48:03;;;;;;;14.15;8.98;;;3.80;99.90;;;;;;5071942;28;20067;-75
2023/04/06 01:50:29;;;;;;;13.38;8.07;;;3.80;99.90;;;;;;5071828;28;20115;-75
2023/04/06 01:52:54;;;;;;;12.27;8.80;;;3.70;99.90;;;;;;5071790;28;20123;-73
2023/04/06 01:55:20;;;;;;;16.05;8.95;;;3.70;99.90;;;;;;5071396;28;20523;-73
2023/04/06 01:57:46;;;;;;;13.45;8.82;;;3.80;99.90;;;;;;5071921;28;20036;-75
2023/04/06 02:00:12;;;;;;;13.98;9.10;;;3.80;99.90;;;;;;5054921;28;20051;-75
2023/04/06 02:02:37;;;;;;;14.52;9.93;;;3.80;99.90;;;;;;5071882;28;20381;-75
2023/04/06 02:05:03;;;;;;;14.13;9.55;;;3.80;99.90;;;;;;5072448;28;20047;-75
2023/04/06 02:07:29;;;;;;;15.60;9.85;;;3.70;99.90;;;;;;5072716;28;20036;-75
2023/04/06 02:09:55;;;;;;;16.75;9.30;;;3.80;99.90;;;;;;5070842;28;20119;-75
2023/04/06 02:12:21;;;;;;;13.60;9.25;;;3.70;99.90;;;;;;5072808;28;20075;-75
2023/04/06 02:14:47;;;;;;;13.75;9.55;;;3.70;99.90;;;;;;5072698;28;20116;-75
2023/04/06 02:17:12;;;;;;;13.65;9.68;;;3.70;99.90;;;;;;5071293;28;20563;-75
2023/04/06 02:19:38;;;;;;;17.05;8.25;;;3.60;99.90;;;;;;5072537;28;20036;-75
2023/04/06 02:22:03;;;;;;;15.07;9.70;;;3.60;99.90;;;;;;5071307;28;20132;-75
2023/04/06 02:24:29;;;;;;;16.63;9.57;;;3.60;99.90;;;;;;5070917;28;20119;-75
2023/04/06 02:26:54;;;;;;;14.20;9.00;;;3.60;99.90;;;;;;5054277;28;20127;-75
2023/04/06 02:29:20;;;;;;;14.65;8.32;;;3.60;99.90;;;;;;5070937;28;20055;-75
2023/04/06 02:31:46;;;;;;;17.92;9.77;;;3.50;99.90;;;;;;5054343;28;20069;-75
2023/04/06 02:34:17;;;;;;;15.90;9.98;;;3.50;99.90;;;;;;5070839;28;20041;-75
2023/04/06 02:36:43;;;;;;;14.07;9.00;;;3.50;99.90;;;;;;5071187;28;20559;-75
2023/04/06 02:39:10;;;;;;;18.60;9.25;;;3.50;99.90;;;;;;5070943;28;20036;-75
2023/04/06 02:41:35;;;;;;;14.02;9.98;;;3.60;99.90;;;;;;5070654;28;20041;-73
2023/04/06 02:44:01;;;;;;;13.15;8.98;;;3.50;99.90;;;;;;5072085;28;20037;-73
2023/04/06 02:46:26;;;;;;;11.93;8.75;;;3.50;99.90;;;;;;5072000;28;20166;-75
2023/04/06 02:48:52;;;;;;;12.40;8.75;;;3.50;99.90;;;;;;5071058;28;20721;-74
2023/04/06 02:51:18;;;;;;;15.35;10.05;;;3.40;99.90;;;;;;5070706;28;20124;-75
2023/04/06 02:53:43;;;;;;;15.32;8.40;;;3.40;99.90;;;;;;5072051;28;20102;-73
2023/04/06 02:56:09;;;;;;;12.63;8.98;;;3.40;99.90;;;;;;5071723;28;20049;-75
2023/04/06 02:58:34;;;;;;;14.88;8.80;;;3.40;99.90;;;;;;5070931;28;20059;-75
2023/04/06 03:01:00;;;;;;;11.98;8.63;;;3.40;99.90;;;;;;5070567;28;20511;-75
2023/04/06 03:03:26;;;;;;;14.88;8.30;;;3.40;99.90;;;;;;5071817;28;20044;-75
2023/04/06 03:05:51;;;;;;;11.88;8.77;;;3.30;99.90;;;;;;5070336;28;20487;-75
2023/04/06 03:08:17;;;;;;;12.23;8.85;;;3.30;99.90;;;;;;5071634;28;20032;-75
2023/04/06 03:10:42;;;;;;;10.82;7.68;;;3.20;99.90;;;;;;5070217;28;20043;-75
2023/04/06 03:13:08;;;;;;;13.07;8.40;;;3.20;99.90;;;;;;5070512;28;20086;-76
2023/04/06 03:15:33;;;;;;;13.75;8.88;;;3.20;99.90;;;;;;5070221;28;20085;-75
2023/04/06 03:17:59;;;;;;;13.95;8.35;;;3.20;99.90;;;;;;5070626;28;20057;-75
2023/04/06 03:20:24;;;;;;;12.73;8.35;;;3.20;99.90;;;;;;5070366;28;20040;-75
2023/04/06 03:22:50;;;;;;;13.25;8.57;;;3.10;99.90;;;;;;5070062;28;20078;-75
2023/04/06 03:25:16;;;;;;;13.68;8.30;;;3.20;99.90;;;;;;5069985;28;20039;-75
2023/04/06 03:27:41;;;;;;;11.63;7.45;;;3.20;99.90;;;;;;5071817;28;20461;-73
2023/04/06 03:30:07;;;;;;;12.75;7.45;;;3.20;99.90;;;;;;5069977;28;20067;-75
2023/04/06 03:32:33;;;;;;;14.10;8.73;;;3.10;99.90;;;;;;5070078;28;20504;-75
2023/04/06 03:34:58;;;;;;;11.38;7.80;;;3.10;99.90;;;;;;5071109;28;20488;-75
2023/04/06 03:37:24;;;;;;;13.20;7.78;;;3.10;99.90;;;;;;5070116;28;20040;-75
2023/04/06 03:39:49;;;;;;;14.82;9.00;;;3.10;99.90;;;;;;5069944;28;20049;-75
2023/04/06 03:42:15;;;;;;;11.27;8.20;;;3.20;99.90;;;;;;5071637;28;20127;-75
2023/04/06 03:44:41;;;;;;;11.73;7.70;;;3.20;99.90;;;;;;5070223;28;20040;-75
2023/04/06 03:47:06;;;;;;;11.05;8.75;;;3.20;99.90;;;;;;5071282;28;20075;-75
2023/04/06 03:49:32;;;;;;;12.18;8.25;;;3.20;99.90;;;;;;5071385;28;20124;-75
2023/04/06 03:51:57;;;;;;;13.40;8.65;;;3.10;99.90;;;;;;5071341;28;20492;-75
2023/04/06 03:54:23;;;;;;;15.43;9.52;;;3.00;99.90;;;;;;5069884;28;20131;-75
2023/04/06 03:56:48;;;;;;;19.77;9.88;;;2.90;99.90;;;;;;5070113;28;20055;-75
2023/04/06 03:59:14;;;;;;;14.68;9.57;;;2.90;99.90;;;;;;5070043;28;20047;-75
2023/04/06 04:01:40;;;;;;;14.45;9.40;;;2.90;99.90;;;;;;5053461;28;20101;-75
2023/04/06 04:04:05;;;;;;;15.75;8.88;;;2.90;99.90;;;;;;5070958;28;20567;-75
2023/04/06 04:06:31;;;;;;;14.90;9.40;;;2.90;99.90;;;;;;5069780;28;20119;-75
2023/04/06 04:08:56;;;;;;;15.63;9.45;;;2.80;99.90;;;;;;5069863;28;20036;-75
2023/04/06 04:11:22;;;;;;;14.15;8.90;;;2.80;99.90;;;;;;5071333;28;20040;-75
2023/04/06 04:13:47;;;;;;;14.85;9.18;;;2.70;99.90;;;;;;5070100;28;20055;-75
2023/04/06 04:16:13;;;;;;;12.90;8.35;;;2.60;99.90;;;;;;5070898;28;20074;-75
2023/04/06 04:18:39;;;;;;;13.55;9.32;;;2.60;99.90;;;;;;5071179;28;20561;-75
2023/04/06 04:21:04;;;;;;;14.20;8.48;;;2.70;99.90;;;;;;5069740;28;20036;-75
2023/04/06 04:23:30;;;;;;;10.18;7.53;;;2.60;99.90;;;;;;5070826;28;20040;-75
2023/04/06 04:25:55;;;;;;;12.18;8.48;;;2.60;99.90;;;;;;5069511;28;20063;-75
2023/04/06 04:28:21;;;;;;;13.65;8.77;;;2.50;99.90;;;;;;5069709;28;20029;-75
2023/04/06 04:30:46;;;;;;;11.80;7.63;;;2.50;99.90;;;;;;5069922;28;20082;-75
2023/04/06 04:33:12;;;;;;;13.43;7.50;;;2.50;99.90;;;;;;5071214;28;20072;-75
2023/04/06 04:35:37;;;;;;;14.68;8.10;;;2.40;99.90;;;;;;5073019;28;20040;-75
2023/04/06 04:38:03;;;;;;;13.52;7.78;;;2.40;99.90;;;;;;5073168;28;20078;-75
2023/04/06 04:40:29;;;;;;;12.18;8.38;;;2.40;99.90;;;;;;5068829;22;20505;-72
2023/04/06 04:42:54;;;;;;;14.38;7.60;;;2.40;99.90;;;;;;5034676;28;20087;-72
2023/04/06 04:45:20;;;;;;;12.63;8.40;;;2.40;99.90;;;;;;5032473;28;20084;-72
2023/04/06 04:47:45;;;;;;;16.40;8.20;;;2.50;99.90;;;;;;5033198;28;20416;-72
2023/04/06 04:50:11;;;;;;;12.80;8.88;;;2.50;99.90;;;;;;5033312;28;20398;-72
2023/04/06 04:52:37;;;;;;;13.27;8.48;;;2.50;99.90;;;;;;5032357;28;20535;-71
2023/04/06 04:55:03;;;;;;;12.35;8.55;;;2.50;99.90;;;;;;5032634;28;20041;-71
2023/04/06 04:57:29;;;;;;;11.82;8.10;;;2.50;99.90;;;;;;5032969;28;20040;-71
2023/04/06 04:59:55;;;;;;;11.88;8.20;;;2.50;99.90;;;;;;5033061;28;20045;-71
2023/04/06 05:02:20;;;;;;;11.15;6.95;;;2.40;99.90;;;;;;5032489;28;20037;-72
2023/04/06 05:04:46;;;;;;;12.90;8.18;;;2.50;99.90;;;;;;5032608;28;20037;-72
2023/04/06 05:07:11;;;;;;;12.73;8.80;;;2.30;99.90;;;;;;5032959;28;20408;-72
2023/04/06 05:09:37;;;;;;;15.85;10.00;;;2.40;99.90;;;;;;5034186;28;20037;-71
2023/04/06 05:12:02;;;;;;;13.48;8.95;;;2.40;99.90;;;;;;5034064;28;20041;-72
2023/04/06 05:14:28;;;;;;;14.00;8.57;;;2.40;99.90;;;;;;5032808;28;20045;-72
2023/04/06 05:16:54;;;;;;;11.98;7.32;;;2.40;99.90;;;;;;5032833;28;20100;-72
2023/04/06 05:19:20;;;;;;;13.35;7.78;;;2.40;99.90;;;;;;5033879;28;20045;-71
2023/04/06 05:21:45;;;;;;;15.50;9.10;;;2.40;99.90;;;;;;5032506;28;20421;-71
2023/04/06 05:24:11;;;;;;;13.43;8.23;;;2.50;99.90;;;;;;5033788;28;20041;-71
2023/04/06 05:26:36;;;;;;;11.60;7.15;;;2.50;99.90;;;;;;5031871;28;20037;-71
2023/04/06 05:29:02;;;;;;;10.25;8.23;;;2.50;99.90;;;;;;5023705;28;20184;-71
2023/04/06 05:31:29;;;;;;;10.25;7.43;;;2.50;99.90;;;;;;5032107;28;20087;-72
2023/04/06 05:33:55;;;;;;;13.25;7.72;;;2.70;99.90;;;;;;5025237;28;20037;-73
2023/04/06 05:36:20;;;;;;;14.98;7.82;;;2.80;99.90;;;;;;5033535;28;20557;-71
2023/04/06 05:38:46;;;;;;;11.93;7.80;;;2.80;99.90;;;;;;5033649;28;20144;-72
2023/04/06 05:41:12;;;;;;;12.13;8.00;;;2.90;99.90;;;;;;5026272;28;20155;-72
2023/04/06 05:43:37;;;;;;;13.30;8.48;;;3.00;99.90;;;;;;5051832;28;20416;-71
2023/04/06 05:46:03;;;;;;;10.93;7.45;;;3.10;99.90;;;;;;5052880;28;20036;-71
2023/04/06 05:48:29;;;;;;;11.05;7.88;;;3.00;99.90;;;;;;5035392;28;20576;-72
2023/04/06 05:50:55;;;;;;;12.13;7.95;;;3.00;99.90;;;;;;5051994;28;20064;-73
2023/04/06 05:53:21;;;;;;;13.50;9.50;;;3.10;99.90;;;;;;5051927;28;20044;-72
2023/04/06 05:55:47;;;;;;;13.93;8.35;;;3.20;99.90;;;;;;5053056;28;20416;-72
2023/04/06 05:58:12;;;;;;;11.82;7.45;;;3.10;99.90;;;;;;5051758;28;20056;-72
2023/04/06 06:00:38;;;;;;;13.30;7.50;;;3.20;99.90;;;;;;5051688;28;20128;-72
2023/04/06 06:03:05;;;;;;;12.02;8.23;;;3.30;99.90;;;;;;5052916;28;20056;-73
2023/04/06 06:05:31;;;;;;;12.27;8.13;;;3.30;99.90;;;;;;5051214;28;20048;-74
2023/04/06 06:07:56;;;;;;;12.18;8.23;;;3.40;99.90;;;;;;5052739;28;20409;-73
2023/04/06 06:10:22;;;;;;;13.68;7.38;;;3.50;99.90;;;;;;5034531;28;20438;-72
2023/04/06 06:12:47;;;;;;;13.88;8.43;;;3.70;99.90;;;;;;5052501;28;20443;-72
2023/04/06 06:15:13;;;;;;;10.55;8.25;;;3.80;99.90;;;;;;5051047;28;20496;-73
2023/04/06 06:17:39;;;;;;;12.00;9.10;;;4.00;99.90;;;;;;5051611;28;20051;-74
2023/04/06 06:20:07;;;;;;;12.63;8.57;;;4.20;99.90;;;;;;5050666;28;20103;-73
2023/04/06 06:22:32;;;;;;;14.90;8.73;;;4.30;99.90;;;;;;5051039;28;20488;-72
2023/04/06 06:24:58;;;;;;;16.00;9.02;;;4.70;99.90;;;;;;5032926;28;20120;-73
2023/04/06 06:27:23;;;;;;;13.98;8.52;;;4.70;99.90;;;;;;5031203;28;20042;-73
2023/04/06 06:29:49;;;;;;;15.18;9.10;;;4.90;99.90;;;;;;5031267;28;20529;-73
2023/04/06 06:32:14;;;;;;;13.65;9.68;;;5.10;99.90;;;;;;5032461;28;20050;-74
2023/04/06 06:34:40;;;;;;;16.23;8.48;;;5.10;99.50;;;;;;5032119;28;20462;-74
2023/04/06 06:37:06;;;;;;;13.75;9.70;;;5.60;99.90;;;;;;5031061;28;20037;-73
2023/04/06 06:39:31;;;;;;;23.17;9.25;;;6.80;99.90;;;;;;5031071;28;20039;-75
2023/04/06 06:42:00;;;;;;;13.05;8.52;;;7.80;99.90;;;;;;5031086;28;20049;-74
2023/04/06 06:44:26;;;;;;;11.32;8.40;;;8.40;99.90;;;;;;5032073;28;20052;-75
2023/04/06 06:46:52;;;;;;;9.48;7.75;;;8.30;99.10;;;;;;5031075;28;20037;-74
2023/04/06 06:49:17;;;;;;;12.43;8.15;;;7.90;97.20;;;;;;5030837;28;20052;-74
2023/04/06 06:51:44;;;;;;;13.75;8.25;;;7.70;96.10;;;;;;5030824;28;20045;-74
2023/04/06 06:54:09;;;;;;;16.75;8.68;;;7.50;94.50;;;;;;5030584;28;20417;-75
2023/04/06 06:56:37;;;;;;;29.02;9.90;;;7.30;95.50;;;;;;5030416;28;20076;-74
2023/04/06 06:59:03;;;;;;;11.02;8.48;;;7.40;95.60;;;;;;5030753;28;20041;-74
2023/04/06 07:01:28;;;;;;;12.15;8.70;;;7.30;95.10;;;;;;5039675;28;20045;-74
2023/04/06 07:03:54;;;;;;;13.85;8.77;;;7.20;94.60;;;;;;5051121;28;20063;-74
2023/04/06 07:06:20;;;;;;;15.25;8.73;;;7.20;94.30;;;;;;5050582;28;20048;-74
2023/04/06 07:08:46;;;;;;;10.82;8.30;;;7.30;94.20;;;;;;5049622;28;20451;-73
2023/04/06 07:11:12;;;;;;;50.33;30.52;;;7.40;94.00;;;;;;5051020;28;20033;-75
2023/04/06 07:13:37;;;;;;;30.55;17.25;;;7.50;93.60;;;;;;5050143;28;20029;-75
2023/04/06 07:16:03;;;;;;;12.90;8.82;;;7.70;93.40;;;;;;5049818;28;20041;-75
2023/04/06 07:18:28;;;;;;;8.82;7.78;;;7.80;92.90;;;;;;5049847;28;20575;-75
2023/04/06 07:20:54;;;;;;;14.00;8.90;;;7.80;92.80;;;;;;5050089;28;20043;-75
2023/04/06 07:23:20;;;;;;;11.95;8.90;;;7.90;91.90;;;;;;5049673;28;20036;-76
2023/04/06 07:25:45;;;;;;;12.50;8.18;;;8.00;91.80;;;;;;5049781;28;20424;-76
2023/04/06 07:28:11;;;;;;;15.55;9.48;;;8.00;91.40;;;;;;5049865;28;20067;-75
2023/04/06 07:30:38;;;;;;;12.95;8.45;;;8.10;91.30;;;;;;5050175;28;20063;-75
2023/04/06 07:33:04;;;;;;;10.75;9.05;;;8.00;91.00;;;;;;5050307;28;20390;-77
2023/04/06 07:35:30;;;;;;;12.65;9.30;;;8.10;91.10;;;;;;5050035;28;20044;-76
2023/04/06 07:37:55;;;;;;;12.98;8.55;;;8.30;91.20;;;;;;5050177;28;20515;-76
2023/04/06 07:40:21;;;;;;;11.45;8.13;;;8.50;91.30;;;;;;5049956;28;20036;-75
2023/04/06 07:42:47;;;;;;;10.20;8.73;;;8.60;90.50;;;;;;5049968;28;20086;-74
2023/04/06 07:45:13;;;;;;;13.38;9.48;;;8.50;90.20;;;;;;5049868;28;20037;-76
2023/04/06 07:47:39;;;;;;;11.20;8.50;;;8.60;89.70;;;;;;5050017;28;20044;-75
2023/04/06 07:50:05;;;;;;;11.88;9.85;;;8.80;89.10;;;;;;5049947;28;20041;-75
2023/04/06 07:52:34;;;;;;;12.82;9.40;;;9.00;88.70;;;;;;5050154;28;20523;-76
2023/04/06 07:55:00;;;;;;;15.30;8.57;;;9.20;88.50;;;;;;5050057;28;20056;-75
2023/04/06 07:57:25;;;;;;;13.75;9.55;;;9.40;88.70;;;;;;5050096;28;20040;-75
2023/04/06 07:59:51;;;;;;;14.30;8.88;;;9.50;87.70;;;;;;5051152;28;20069;-75
2023/04/06 08:02:17;;;;;;;12.45;8.80;;;9.70;87.80;;;;;;5051208;28;20060;-75
2023/04/06 08:04:43;;;;;;;12.93;9.20;;;9.70;86.80;;;;;;5049572;28;20439;-74
2023/04/06 08:07:09;;;;;;;53.08;32.83;;;10.10;86.60;;;;;;5050649;28;20063;-75
2023/04/06 08:09:34;;;;;;;23.08;14.68;;;10.00;85.30;;;;;;5053254;28;20033;-75
2023/04/06 08:12:00;;;;;;;24.75;17.20;;;10.30;86.80;;;;;;5053550;28;20036;-74
2023/04/06 08:14:26;;;;;;;13.15;10.48;;;10.40;86.30;;;;;;5053044;28;20420;-74
2023/04/06 08:16:51;;;;;;;19.05;11.02;;;10.50;86.20;;;;;;5054301;28;20040;-73
2023/04/06 08:19:18;;;;;;;10.65;9.55;;;10.60;86.00;;;;;;5053004;28;20124;-75
2023/04/06 08:21:45;;;;;;;12.00;8.73;;;10.80;85.60;;;;;;5054708;28;20098;-75
2023/04/06 08:24:11;;;;;;;17.80;9.93;;;10.80;84.90;;;;;;5053267;28;20546;-75
2023/04/06 08:26:37;;;;;;;13.88;9.43;;;10.80;83.70;;;;;;5054661;28;20041;-75
2023/04/06 08:29:03;;;;;;;16.13;9.68;;;10.90;83.10;;;;;;5053396;28;20082;-75
2023/04/06 08:31:30;;;;;;;13.68;9.05;;;11.00;82.70;;;;;;5053194;28;20121;-75
2023/04/06 08:33:56;;;;;;;10.93;8.85;;;11.20;82.60;;;;;;5053169;28;20037;-75
2023/04/06 08:36:22;;;;;;;12.82;8.80;;;11.20;83.00;;;;;;5053253;28;20071;-75
2023/04/06 08:38:49;;;;;;;12.02;9.95;;;11.40;82.70;;;;;;5053614;28;20029;-75
2023/04/06 08:41:16;;;;;;;16.15;9.70;;;11.30;80.40;;;;;;5053010;28;20045;-75
2023/04/06 08:43:58;;;;;;;12.65;9.77;;;11.20;79.70;;;;;;5052961;28;20036;-75
2023/04/06 08:46:29;;;;;;;14.68;9.95;;;11.40;79.90;;;;;;5053301;28;20045;-75
2023/04/06 08:48:56;;;;;;;12.50;8.77;;;11.70;79.50;;;;;;5053203;28;20047;-75
2023/04/06 08:51:25;;;;;;;10.75;8.93;;;11.60;78.30;;;;;;5052698;28;20403;-75
2023/04/06 08:53:51;;;;;;;13.48;9.15;;;11.80;78.30;;;;;;5033351;28;20029;-76
2023/04/06 08:56:17;;;;;;;15.10;9.60;;;11.80;76.70;;;;;;5052790;28;20104;-75
2023/04/06 08:58:43;;;;;;;12.60;9.80;;;12.00;76.30;;;;;;5053266;28;20037;-75
2023/04/06 09:01:12;;;;;;;10.45;8.55;;;12.20;76.00;;;;;;5036372;28;20128;-75
2023/04/06 09:03:39;;;;;;;13.45;9.15;;;12.20;74.60;;;;;;5052660;28;20049;-74
2023/04/06 09:06:06;;;;;;;13.00;9.77;;;12.20;73.80;;;;;;5052122;28;20090;-74
2023/04/06 09:08:34;;;;;;;14.13;9.60;;;12.10;72.30;;;;;;5052871;28;20527;-73
2023/04/06 09:11:01;;;;;;;38.97;24.27;;;12.20;72.30;;;;;;5052526;28;20512;-73
2023/04/06 09:13:26;;;;;;;39.63;23.83;;;12.10;72.60;;;;;;5054020;28;20044;-73
2023/04/06 09:16:03;;;;;;;13.02;9.27;;;12.30;72.50;;;;;;5052345;28;20037;-74
2023/04/06 09:18:30;;;;;;;12.85;8.63;;;12.10;69.80;;;;;;5052554;28;20041;-73
2023/04/06 09:21:04;;;;;;;13.60;8.73;;;12.10;70.80;;;;;;5053180;28;20037;-74
2023/04/06 09:23:30;;;;;;;12.63;9.40;;;12.20;69.40;;;;;;5052334;28;20037;-74
2023/04/06 09:26:16;;;;;;;12.82;8.25;;;12.10;67.30;;;;;;5052033;28;20121;-74
2023/04/06 09:28:54;;;;;;;12.23;9.48;;;12.20;65.10;;;;;;5052418;28;20029;-74
2023/04/06 09:31:28;;;;;;;12.02;8.02;;;12.30;65.60;;;;;;5052422;28;20033;-73
2023/04/06 09:33:54;;;;;;;16.48;10.32;;;12.10;63.60;;;;;;5052040;28;20526;-73
2023/04/06 09:36:29;;;;;;;10.77;8.55;;;12.00;64.00;;;;;;5052088;28;20124;-73
2023/04/06 09:38:56;;;;;;;11.57;7.93;;;12.10;63.70;;;;;;5053526;28;20037;-74
2023/04/06 09:41:23;;;;;;;13.27;9.35;;;12.20;63.40;;;;;;5051900;28;20047;-73
2023/04/06 09:44:02;;;;;;;11.52;8.55;;;12.30;63.50;;;;;;5051933;28;20040;-74
2023/04/06 09:46:38;;;;;;;14.70;8.93;;;12.20;61.90;;;;;;5052116;28;20453;-70
2023/04/06 09:49:05;;;;;;;10.85;8.27;;;12.30;60.80;;;;;;5053381;28;20059;-70
2023/04/06 09:51:39;;;;;;;13.57;8.73;;;12.40;61.70;;;;;;5052681;28;20090;-69
2023/04/06 09:54:06;;;;;;;14.82;8.75;;;12.60;62.00;;;;;;5051749;28;20497;-69
2023/04/06 09:56:45;;;;;;;13.35;9.63;;;12.70;62.20;;;;;;5051671;28;20059;-70
2023/04/06 09:59:25;;;;;;;13.38;10.50;;;12.80;61.10;;;;;;5053218;28;20094;-69
2023/04/06 10:01:53;;;;;;;11.57;9.20;;;12.80;61.00;;;;;;5052829;28;20036;-70
2023/04/06 10:04:30;;;;;;;15.40;9.57;;;12.70;60.20;;;;;;5051384;28;20528;-71
2023/04/06 10:06:58;;;;;;;14.25;10.40;;;12.70;61.00;;;;;;5051329;28;20071;-72
2023/04/06 10:09:27;;;;;;;18.13;11.13;;;12.70;61.70;;;;;;5051399;28;20041;-72
2023/04/06 10:11:54;;;;;;;15.35;10.57;;;12.80;61.70;;;;;;5051503;28;20045;-72
2023/04/06 10:14:19;;;;;;;15.13;10.88;;;12.80;61.80;;;;;;5050797;28;20417;-71
2023/04/06 10:16:48;;;;;;;16.35;11.23;;;12.90;61.40;;;;;;5051572;28;20045;-72
2023/04/06 10:19:20;;;;;;;14.98;10.85;;;12.80;61.20;;;;;;5051677;28;20072;-72
2023/04/06 10:21:49;;;;;;;16.90;11.38;;;12.80;61.30;;;;;;5052475;28;20044;-72
2023/04/06 10:24:17;;;;;;;16.33;12.00;;;12.80;61.60;;;;;;5052506;28;20460;-71
2023/04/06 10:26:42;;;;;;;18.33;11.00;;;12.70;61.70;;;;;;5051164;28;20041;-73
2023/04/06 10:29:08;;;;;;;16.90;10.95;;;12.90;61.70;;;;;;5050945;28;20127;-71
2023/04/06 10:31:42;;;;;;;17.83;11.35;;;13.10;62.60;;;;;;5049677;28;20052;-71
2023/04/06 10:34:07;;;;;;;15.32;11.48;;;13.10;61.30;;;;;;5052212;28;20045;-70
2023/04/06 10:36:34;;;;;;;17.08;11.68;;;13.00;61.30;;;;;;5052340;28;20052;-71
2023/04/06 10:39:06;;;;;;;14.93;11.63;;;12.90;61.00;;;;;;5052488;28;20048;-71
2023/04/06 10:41:36;;;;;;;18.33;12.88;;;13.10;60.70;;;;;;5052208;28;20037;-72
2023/04/06 10:44:02;;;;;;;16.58;11.82;;;13.20;60.40;;;;;;5052048;28;20032;-71
2023/04/06 10:46:32;;;;;;;24.23;16.90;;;13.30;60.50;;;;;;5052005;28;20399;-72
2023/04/06 10:49:09;;;;;;;23.17;13.57;;;13.40;60.20;;;;;;5052065;28;20037;-71
2023/04/06 10:51:38;;;;;;;14.65;12.05;;;13.50;61.00;;;;;;5052207;28;20111;-71
2023/04/06 10:54:05;;;;;;;17.55;11.80;;;13.60;60.20;;;;;;5051967;28;20063;-71
2023/04/06 10:56:36;;;;;;;17.13;13.40;;;13.60;60.50;;;;;;5051902;28;20040;-71
2023/04/06 10:59:01;;;;;;;21.58;13.70;;;13.50;60.50;;;;;;5051860;28;20405;-71
2023/04/06 11:01:27;;;;;;;22.52;14.95;;;13.60;59.90;;;;;;5051775;28;20037;-71
2023/04/06 11:03:55;;;;;;;21.80;13.70;;;13.70;59.50;;;;;;5051890;28;20033;-71
2023/04/06 11:06:28;;;;;;;18.10;13.50;;;13.60;58.50;;;;;;5051916;28;20107;-70
2023/04/06 11:08:55;;;;;;;32.17;20.77;;;13.60;57.80;;;;;;5052037;28;20032;-72
2023/04/06 11:11:22;;;;;;;60.00;42.90;;;13.50;57.90;;;;;;5051744;28;20488;-72
2023/04/06 11:13:56;;;;;;;79.50;50.10;;;13.60;57.80;;;;;;5067258;28;20650;-71
2023/04/06 11:16:22;;;;;;;30.80;21.98;;;13.60;57.50;;;;;;5050658;28;20409;-73
2023/04/06 11:18:58;;;;;;;26.77;16.27;;;13.60;56.80;;;;;;5051868;28;20037;-72
2023/04/06 11:21:38;;;;;;;22.33;14.40;;;13.70;57.10;;;;;;5050640;28;20127;-72
2023/04/06 11:24:16;;;;;;;21.58;14.68;;;13.60;56.30;;;;;;5051395;28;20053;-74
2023/04/06 11:26:43;;;;;;;19.75;14.77;;;13.50;56.20;;;;;;5051693;28;20036;-71
2023/04/06 11:29:10;;;;;;;22.95;15.88;;;13.60;56.60;;;;;;5051716;28;20040;-71
2023/04/06 11:31:46;;;;;;;22.38;15.32;;;13.60;56.70;;;;;;5051564;28;20040;-71
2023/04/06 11:34:20;;;;;;;27.70;17.67;;;13.70;57.00;;;;;;5051435;28;20045;-71
2023/04/06 11:36:47;;;;;;;37.75;17.38;;;13.80;56.70;;;;;;5051238;28;20037;-70
2023/04/06 11:39:17;;;;;;;32.15;17.48;;;13.80;56.90;;;;;;5051379;28;20076;-70
2023/04/06 11:41:47;;;;;;;24.95;17.08;;;13.80;56.40;;;;;;5049916;28;20041;-71
2023/04/06 11:44:13;;;;;;;25.52;17.85;;;13.90;55.00;;;;;;5053749;28;20528;-71
2023/04/06 11:46:39;;;;;;;28.42;20.15;;;13.80;55.60;;;;;;5053811;28;20037;-70
2023/04/06 11:49:05;;;;;;;44.42;29.52;;;13.80;55.40;;;;;;5054812;28;20126;-70
2023/04/06 11:51:35;;;;;;;27.73;17.00;;;13.70;55.30;;;;;;5053819;28;20049;-71
2023/04/06 11:54:01;;;;;;;25.33;16.48;;;13.80;55.00;;;;;;5053924;28;20040;-73
2023/04/06 11:56:28;;;;;;;26.48;17.65;;;13.80;55.50;;;;;;5055083;28;20094;-73
2023/04/06 11:58:55;;;;;;;26.15;18.58;;;13.90;55.70;;;;;;5055339;28;20052;-71
2023/04/06 12:01:21;;;;;;;25.63;17.90;;;14.00;55.50;;;;;;5055262;28;20037;-73
2023/04/06 12:03:47;;;;;;;23.25;17.25;;;14.10;55.00;;;;;;5055002;28;20033;-72
2023/04/06 12:06:13;;;;;;;27.08;18.33;;;14.10;54.40;;;;;;5053827;28;20502;-72
2023/04/06 12:08:38;;;;;;;26.90;18.83;;;14.20;55.00;;;;;;5055345;28;20048;-72
2023/04/06 12:11:04;;;;;;;23.77;17.30;;;14.20;55.10;;;;;;5054970;28;20037;-72
2023/04/06 12:13:29;;;;;;;24.58;18.00;;;14.20;54.50;;;;;;5053723;28;20045;-72
2023/04/06 12:15:55;;;;;;;31.15;18.73;;;14.10;54.10;;;;;;5054799;28;20094;-72
2023/04/06 12:18:21;;;;;;;27.30;19.25;;;14.10;54.00;;;;;;5054878;28;20041;-72
2023/04/06 12:20:46;;;;;;;30.17;20.60;;;14.00;53.50;;;;;;5054873;28;20095;-71
2023/04/06 12:23:12;;;;;;;30.58;20.05;;;14.00;53.50;;;;;;5054179;28;20029;-71
2023/04/06 12:25:39;;;;;;;29.92;19.92;;;14.00;53.90;;;;;;5054203;28;20514;-71
2023/04/06 12:28:05;;;;;;;30.17;20.73;;;14.00;53.50;;;;;;5054156;28;20040;-71
2023/04/06 12:30:31;;;;;;;29.48;20.42;;;14.10;53.20;;;;;;5054403;28;20040;-71
2023/04/06 12:32:57;;;;;;;29.92;20.52;;;14.00;53.30;;;;;;5054630;28;20103;-70
2023/04/06 12:35:23;;;;;;;28.52;20.88;;;14.00;54.50;;;;;;5054593;28;20052;-70
2023/04/06 12:37:48;;;;;;;32.85;20.25;;;14.00;54.00;;;;;;5054853;28;20143;-70